sensor_id;sensor_type;location;lat;lon;timestamp;pressure;altitude;pressure_sealevel;temperature;humidity
75933;BME280;64803;52.356;5.310;2023-08-24T00:00:46;102000.84;;;15.02;100.00
75933;BME280;64803;52.356;5.310;2023-08-24T00:03:12;102002.69;;;15.02;100.00
75933;BME280;64803;52.356;5.310;2023-08-24T00:05:38;102008.59;;;15.05;100.00
75933;BME280;64803;52.356;5.310;2023-08-24T00:08:06;102017.19;;;15.09;100.00
75933;BME280;64803;52.356;5.310;2023-08-24T00:10:32;102004.72;;;15.08;100.00
75933;BME280;64803;52.356;5.310;2023-08-24T00:12:58;101999.63;;;15.05;100.00
75933;BME280;64803;52.356;5.310;2023-08-24T00:15:24;101979.31;;;15.09;100.00
75933;BME280;64803;52.356;5.310;2023-08-24T00:17:50;101974.50;;;15.19;100.00
75933;BME280;64803;52.356;5.310;2023-08-24T00:20:16;101947.41;;;15.27;100.00
75933;BME280;64803;52.356;5.310;2023-08-24T00:22:42;101952.34;;;15.38;100.00
75933;BME280;64803;52.356;5.310;2023-08-24T00:25:09;101962.88;;;15.41;100.00
75933;BME280;64803;52.356;5.310;2023-08-24T00:27:36;101967.53;;;15.47;100.00
75933;BME280;64803;52.356;5.310;2023-08-24T00:30:03;101955.34;;;15.51;100.00
75933;BME280;64803;52.356;5.310;2023-08-24T00:32:33;101948.88;;;15.52;100.00
75933;BME280;64803;52.356;5.310;2023-08-24T00:35:04;101954.97;;;15.54;100.00
75933;BME280;64803;52.356;5.310;2023-08-24T00:37:32;101956.94;;;15.60;100.00
75933;BME280;64803;52.356;5.310;2023-08-24T00:40:03;101965.34;;;15.65;100.00
75933;BME280;64803;52.356;5.310;2023-08-24T00:42:32;101954.81;;;15.70;100.00
75933;BME280;64803;52.356;5.310;2023-08-24T00:44:58;101953.44;;;15.74;100.00
75933;BME280;64803;52.356;5.310;2023-08-24T00:47:24;101949.28;;;15.78;100.00
75933;BME280;64803;52.356;5.310;2023-08-24T00:49:51;101946.88;;;15.83;100.00
75933;BME280;64803;52.356;5.310;2023-08-24T00:52:18;101942.78;;;15.87;100.00
75933;BME280;64803;52.356;5.310;2023-08-24T00:54:44;101938.69;;;15.91;100.00
75933;BME280;64803;52.356;5.310;2023-08-24T00:57:11;101933.25;;;15.91;100.00
75933;BME280;64803;52.356;5.310;2023-08-24T00:59:37;101930.56;;;15.91;100.00
75933;BME280;64803;52.356;5.310;2023-08-24T01:02:04;101937.09;;;15.97;100.00
75933;BME280;64803;52.356;5.310;2023-08-24T01:04:30;101935.03;;;15.99;100.00
75933;BME280;64803;52.356;5.310;2023-08-24T01:06:56;101936.25;;;15.96;100.00
75933;BME280;64803;52.356;5.310;2023-08-24T01:09:23;101935.59;;;15.94;100.00
75933;BME280;64803;52.356;5.310;2023-08-24T01:14:58;101943.72;;;15.94;100.00
75933;BME280;64803;52.356;5.310;2023-08-24T01:17:27;101943.25;;;15.91;100.00
75933;BME280;64803;52.356;5.310;2023-08-24T01:19:55;101949.91;;;15.88;100.00
75933;BME280;64803;52.356;5.310;2023-08-24T01:25:12;101956.25;;;15.95;100.00
75933;BME280;64803;52.356;5.310;2023-08-24T01:27:42;101944.94;;;15.92;100.00
75933;BME280;64803;52.356;5.310;2023-08-24T01:30:08;101952.41;;;16.04;100.00
75933;BME280;64803;52.356;5.310;2023-08-24T01:32:36;101946.22;;;15.96;100.00
75933;BME280;64803;52.356;5.310;2023-08-24T01:35:05;101949.06;;;16.02;100.00
75933;BME280;64803;52.356;5.310;2023-08-24T01:37:32;101941.56;;;16.04;100.00
75933;BME280;64803;52.356;5.310;2023-08-24T01:40:16;101946.25;;;16.10;100.00
75933;BME280;64803;52.356;5.310;2023-08-24T01:43:04;101938.13;;;16.10;100.00
75933;BME280;64803;52.356;5.310;2023-08-24T01:45:32;101930.66;;;16.12;100.00
75933;BME280;64803;52.356;5.310;2023-08-24T01:48:05;101944.47;;;16.17;100.00
75933;BME280;64803;52.356;5.310;2023-08-24T01:50:33;101937.34;;;16.16;100.00
75933;BME280;64803;52.356;5.310;2023-08-24T01:53:00;101944.47;;;16.17;100.00
75933;BME280;64803;52.356;5.310;2023-08-24T01:55:26;101925.50;;;16.17;100.00
75933;BME280;64803;52.356;5.310;2023-08-24T01:57:55;101919.22;;;16.17;100.00
75933;BME280;64803;52.356;5.310;2023-08-24T02:00:21;101882.22;;;16.09;100.00
75933;BME280;64803;52.356;5.310;2023-08-24T02:02:47;101871.38;;;16.09;100.00
75933;BME280;64803;52.356;5.310;2023-08-24T02:05:13;101869.25;;;16.05;100.00
75933;BME280;64803;52.356;5.310;2023-08-24T02:07:40;101877.19;;;16.06;100.00
75933;BME280;64803;52.356;5.310;2023-08-24T02:10:07;101885.78;;;16.10;100.00
75933;BME280;64803;52.356;5.310;2023-08-24T02:12:33;101885.59;;;16.11;100.00
75933;BME280;64803;52.356;5.310;2023-08-24T02:14:59;101884.38;;;16.14;100.00
75933;BME280;64803;52.356;5.310;2023-08-24T02:17:26;101866.25;;;16.14;100.00
75933;BME280;64803;52.356;5.310;2023-08-24T02:19:52;101869.88;;;16.21;100.00
75933;BME280;64803;52.356;5.310;2023-08-24T02:22:18;101875.78;;;16.25;100.00
75933;BME280;64803;52.356;5.310;2023-08-24T02:24:44;101875.84;;;16.31;100.00
75933;BME280;64803;52.356;5.310;2023-08-24T02:27:10;101875.25;;;16.36;100.00
75933;BME280;64803;52.356;5.310;2023-08-24T02:29:36;101869.63;;;16.37;100.00
75933;BME280;64803;52.356;5.310;2023-08-24T02:32:04;101860.50;;;16.38;100.00
75933;BME280;64803;52.356;5.310;2023-08-24T02:34:30;101854.88;;;16.40;100.00
75933;BME280;64803;52.356;5.310;2023-08-24T02:36:57;101845.91;;;16.39;100.00
75933;BME280;64803;52.356;5.310;2023-08-24T02:39:23;101844.97;;;16.32;100.00
75933;BME280;64803;52.356;5.310;2023-08-24T02:41:49;101839.56;;;16.32;100.00
75933;BME280;64803;52.356;5.310;2023-08-24T02:44:15;101809.94;;;16.31;100.00
75933;BME280;64803;52.356;5.310;2023-08-24T02:46:44;101812.56;;;16.24;100.00
75933;BME280;64803;52.356;5.310;2023-08-24T02:49:10;101813.13;;;16.20;100.00
75933;BME280;64803;52.356;5.310;2023-08-24T02:51:36;101812.66;;;16.16;100.00
75933;BME280;64803;52.356;5.310;2023-08-24T02:54:04;101809.34;;;16.14;100.00
75933;BME280;64803;52.356;5.310;2023-08-24T02:56:29;101791.78;;;16.10;100.00
75933;BME280;64803;52.356;5.310;2023-08-24T02:58:56;101789.06;;;16.10;100.00
75933;BME280;64803;52.356;5.310;2023-08-24T03:01:22;101790.47;;;16.06;100.00
75933;BME280;64803;52.356;5.310;2023-08-24T03:03:48;101789.81;;;16.04;100.00
75933;BME280;64803;52.356;5.310;2023-08-24T03:06:14;101792.53;;;16.04;100.00
75933;BME280;64803;52.356;5.310;2023-08-24T03:08:39;101795.81;;;16.00;100.00
75933;BME280;64803;52.356;5.310;2023-08-24T03:11:06;101780.22;;;16.02;100.00
75933;BME280;64803;52.356;5.310;2023-08-24T03:13:35;101772.28;;;16.00;100.00
75933;BME280;64803;52.356;5.310;2023-08-24T03:16:05;101767.41;;;15.96;100.00
75933;BME280;64803;52.356;5.310;2023-08-24T03:18:32;101763.59;;;15.90;100.00
75933;BME280;64803;52.356;5.310;2023-08-24T03:20:58;101758.94;;;15.84;100.00
75933;BME280;64803;52.356;5.310;2023-08-24T03:23:25;101752.81;;;15.75;100.00
75933;BME280;64803;52.356;5.310;2023-08-24T03:25:51;101746.09;;;15.71;100.00
75933;BME280;64803;52.356;5.310;2023-08-24T03:28:17;101748.53;;;15.66;100.00
75933;BME280;64803;52.356;5.310;2023-08-24T03:30:48;101750.75;;;15.63;100.00
75933;BME280;64803;52.356;5.310;2023-08-24T03:33:15;101741.53;;;15.57;100.00
75933;BME280;64803;52.356;5.310;2023-08-24T03:35:41;101739.41;;;15.53;100.00
75933;BME280;64803;52.356;5.310;2023-08-24T03:38:07;101745.56;;;15.47;100.00
75933;BME280;64803;52.356;5.310;2023-08-24T03:40:33;101748.84;;;15.42;100.00
75933;BME280;64803;52.356;5.310;2023-08-24T03:43:01;101731.75;;;15.42;100.00
75933;BME280;64803;52.356;5.310;2023-08-24T03:45:28;101732.09;;;15.39;100.00
75933;BME280;64803;52.356;5.310;2023-08-24T03:47:54;101749.53;;;15.36;100.00
75933;BME280;64803;52.356;5.310;2023-08-24T03:50:21;101745.53;;;15.32;100.00
75933;BME280;64803;52.356;5.310;2023-08-24T03:52:50;101750.50;;;15.29;100.00
75933;BME280;64803;52.356;5.310;2023-08-24T03:55:16;101750.09;;;15.32;100.00
75933;BME280;64803;52.356;5.310;2023-08-24T03:57:43;101745.34;;;15.34;100.00
75933;BME280;64803;52.356;5.310;2023-08-24T04:00:09;101749.06;;;15.33;100.00
75933;BME280;64803;52.356;5.310;2023-08-24T04:02:41;101739.94;;;15.34;100.00
75933;BME280;64803;52.356;5.310;2023-08-24T04:05:08;101736.84;;;15.37;100.00
75933;BME280;64803;52.356;5.310;2023-08-24T04:07:34;101739.56;;;15.37;100.00
75933;BME280;64803;52.356;5.310;2023-08-24T04:10:04;101732.81;;;15.33;100.00
75933;BME280;64803;52.356;5.310;2023-08-24T04:12:31;101735.91;;;15.30;100.00
75933;BME280;64803;52.356;5.310;2023-08-24T04:14:58;101739.47;;;15.30;100.00
75933;BME280;64803;52.356;5.310;2023-08-24T04:17:25;101739.94;;;15.34;100.00
75933;BME280;64803;52.356;5.310;2023-08-24T04:19:51;101736.97;;;15.29;100.00
75933;BME280;64803;52.356;5.310;2023-08-24T04:22:18;101743.66;;;15.33;100.00
75933;BME280;64803;52.356;5.310;2023-08-24T04:24:44;101733.03;;;15.31;100.00
75933;BME280;64803;52.356;5.310;2023-08-24T04:27:10;101728.84;;;15.29;100.00
75933;BME280;64803;52.356;5.310;2023-08-24T04:29:37;101719.47;;;15.17;100.00
75933;BME280;64803;52.356;5.310;2023-08-24T04:32:03;101736.03;;;15.22;100.00
75933;BME280;64803;52.356;5.310;2023-08-24T04:34:29;101738.06;;;15.20;100.00
75933;BME280;64803;52.356;5.310;2023-08-24T04:36:55;101738.88;;;15.20;100.00
75933;BME280;64803;52.356;5.310;2023-08-24T04:39:21;101748.91;;;15.20;100.00
75933;BME280;64803;52.356;5.310;2023-08-24T04:41:47;101748.72;;;15.21;100.00
75933;BME280;64803;52.356;5.310;2023-08-24T04:44:13;101745.16;;;15.21;100.00
75933;BME280;64803;52.356;5.310;2023-08-24T04:46:39;101741.44;;;15.22;100.00
75933;BME280;64803;52.356;5.310;2023-08-24T04:49:05;101741.44;;;15.22;100.00
75933;BME280;64803;52.356;5.310;2023-08-24T04:51:31;101746.19;;;15.20;100.00
75933;BME280;64803;52.356;5.310;2023-08-24T04:53:57;101739.53;;;15.22;100.00
75933;BME280;64803;52.356;5.310;2023-08-24T04:56:23;101745.22;;;15.27;100.00
75933;BME280;64803;52.356;5.310;2023-08-24T04:58:56;101736.56;;;15.32;100.00
75933;BME280;64803;52.356;5.310;2023-08-24T05:01:23;101720.88;;;15.27;100.00
75933;BME280;64803;52.356;5.310;2023-08-24T05:03:51;101739.56;;;15.37;100.00
75933;BME280;64803;52.356;5.310;2023-08-24T05:06:18;101735.00;;;15.37;100.00
75933;BME280;64803;52.356;5.310;2023-08-24T05:08:44;101734.44;;;15.42;100.00
75933;BME280;64803;52.356;5.310;2023-08-24T05:11:16;101728.03;;;15.43;100.00
75933;BME280;64803;52.356;5.310;2023-08-24T05:13:42;101719.06;;;15.42;100.00
75933;BME280;64803;52.356;5.310;2023-08-24T05:16:09;101718.75;;;15.52;100.00
75933;BME280;64803;52.356;5.310;2023-08-24T05:18:36;101724.44;;;15.57;100.00
75933;BME280;64803;52.356;5.310;2023-08-24T05:21:05;101713.25;;;15.60;100.00
75933;BME280;64803;52.356;5.310;2023-08-24T05:23:32;101711.66;;;15.65;100.00
75933;BME280;64803;52.356;5.310;2023-08-24T05:26:00;101704.16;;;15.67;100.00
75933;BME280;64803;52.356;5.310;2023-08-24T05:28:28;101695.09;;;15.75;100.00
75933;BME280;64803;52.356;5.310;2023-08-24T05:30:54;101683.84;;;15.78;100.00
75933;BME280;64803;52.356;5.310;2023-08-24T05:33:22;101678.69;;;15.83;100.00
75933;BME280;64803;52.356;5.310;2023-08-24T05:35:48;101673.94;;;15.85;100.00
75933;BME280;64803;52.356;5.310;2023-08-24T05:38:15;101668.78;;;15.90;100.00
75933;BME280;64803;52.356;5.310;2023-08-24T05:40:42;101668.47;;;16.00;100.00
75933;BME280;64803;52.356;5.310;2023-08-24T05:43:09;101660.78;;;16.03;100.00
75933;BME280;64803;52.356;5.310;2023-08-24T05:45:36;101664.66;;;16.15;100.00
75933;BME280;64803;52.356;5.310;2023-08-24T05:48:05;101663.94;;;16.28;100.00
75933;BME280;64803;52.356;5.310;2023-08-24T05:50:31;101667.81;;;16.40;100.00
75933;BME280;64803;52.356;5.310;2023-08-24T05:52:57;101660.00;;;16.51;100.00
75933;BME280;64803;52.356;5.310;2023-08-24T05:55:23;101664.25;;;16.60;100.00
75933;BME280;64803;52.356;5.310;2023-08-24T05:57:49;101663.06;;;16.69;100.00
75933;BME280;64803;52.356;5.310;2023-08-24T06:00:15;101647.47;;;16.78;100.00
75933;BME280;64803;52.356;5.310;2023-08-24T06:02:42;101647.13;;;16.88;100.00
75933;BME280;64803;52.356;5.310;2023-08-24T06:05:08;101644.44;;;16.94;100.00
75933;BME280;64803;52.356;5.310;2023-08-24T06:07:34;101650.78;;;17.08;100.00
75933;BME280;64803;52.356;5.310;2023-08-24T06:10:00;101654.38;;;17.21;100.00
75933;BME280;64803;52.356;5.310;2023-08-24T06:12:26;101652.56;;;17.35;100.00
75933;BME280;64803;52.356;5.310;2023-08-24T06:14:52;101643.88;;;17.52;100.00
75933;BME280;64803;52.356;5.310;2023-08-24T06:17:18;101633.06;;;17.59;100.00
75933;BME280;64803;52.356;5.310;2023-08-24T06:19:44;101631.81;;;17.68;100.00
75933;BME280;64803;52.356;5.310;2023-08-24T06:22:10;101627.44;;;17.73;100.00
75933;BME280;64803;52.356;5.310;2023-08-24T06:24:36;101628.91;;;17.69;100.00
75933;BME280;64803;52.356;5.310;2023-08-24T06:27:02;101651.88;;;17.67;100.00
75933;BME280;64803;52.356;5.310;2023-08-24T06:29:29;101647.50;;;17.72;100.00
75933;BME280;64803;52.356;5.310;2023-08-24T06:31:55;101647.31;;;17.74;100.00
75933;BME280;64803;52.356;5.310;2023-08-24T06:34:21;101638.56;;;17.91;100.00
75933;BME280;64803;52.356;5.310;2023-08-24T06:36:49;101626.03;;;18.10;100.00
75933;BME280;64803;52.356;5.310;2023-08-24T06:39:16;101635.44;;;18.21;100.00
75933;BME280;64803;52.356;5.310;2023-08-24T06:41:42;101638.59;;;18.18;100.00
75933;BME280;64803;52.356;5.310;2023-08-24T06:44:08;101621.00;;;18.07;100.00
75933;BME280;64803;52.356;5.310;2023-08-24T06:46:34;101631.06;;;18.13;100.00
75933;BME280;64803;52.356;5.310;2023-08-24T06:49:00;101640.88;;;18.21;100.00
75933;BME280;64803;52.356;5.310;2023-08-24T06:51:27;101629.41;;;18.25;100.00
75933;BME280;64803;52.356;5.310;2023-08-24T06:53:54;101631.47;;;18.36;100.00
75933;BME280;64803;52.356;5.310;2023-08-24T06:56:20;101636.53;;;18.46;100.00
75933;BME280;64803;52.356;5.310;2023-08-24T06:58:47;101637.34;;;18.59;100.00
75933;BME280;64803;52.356;5.310;2023-08-24T07:01:13;101626.47;;;18.72;100.00
75933;BME280;64803;52.356;5.310;2023-08-24T07:03:39;101623.13;;;18.70;100.00
75933;BME280;64803;52.356;5.310;2023-08-24T07:06:06;101627.06;;;18.74;100.00
75933;BME280;64803;52.356;5.310;2023-08-24T07:08:34;101624.38;;;18.68;100.00
75933;BME280;64803;52.356;5.310;2023-08-24T07:11:01;101634.81;;;18.77;100.00
75933;BME280;64803;52.356;5.310;2023-08-24T07:13:27;101643.97;;;18.96;100.00
75933;BME280;64803;52.356;5.310;2023-08-24T07:15:53;101642.66;;;19.18;100.00
75933;BME280;64803;52.356;5.310;2023-08-24T07:18:21;101644.25;;;19.45;100.00
75933;BME280;64803;52.356;5.310;2023-08-24T07:20:47;101640.03;;;19.49;100.00
75933;BME280;64803;52.356;5.310;2023-08-24T07:23:13;101648.81;;;19.58;100.00
75933;BME280;64803;52.356;5.310;2023-08-24T07:25:39;101662.19;;;19.66;100.00
75933;BME280;64803;52.356;5.310;2023-08-24T07:28:06;101653.75;;;19.74;100.00
75933;BME280;64803;52.356;5.310;2023-08-24T07:30:35;101653.22;;;19.90;100.00
75933;BME280;64803;52.356;5.310;2023-08-24T07:33:02;101656.13;;;19.95;100.00
75933;BME280;64803;52.356;5.310;2023-08-24T07:35:31;101658.63;;;19.96;100.00
75933;BME280;64803;52.356;5.310;2023-08-24T07:37:57;101656.94;;;20.02;100.00
75933;BME280;64803;52.356;5.310;2023-08-24T07:40:24;101654.53;;;20.12;100.00
75933;BME280;64803;52.356;5.310;2023-08-24T07:42:53;101654.31;;;20.20;100.00
75933;BME280;64803;52.356;5.310;2023-08-24T07:45:21;101645.41;;;20.31;100.00
75933;BME280;64803;52.356;5.310;2023-08-24T07:47:47;101656.59;;;20.48;100.00
75933;BME280;64803;52.356;5.310;2023-08-24T07:50:13;101655.44;;;20.62;100.00
75933;BME280;64803;52.356;5.310;2023-08-24T07:52:39;101665.41;;;20.74;100.00
75933;BME280;64803;52.356;5.310;2023-08-24T07:55:06;101661.25;;;20.90;100.00
75933;BME280;64803;52.356;5.310;2023-08-24T07:57:33;101679.22;;;20.97;100.00
75933;BME280;64803;52.356;5.310;2023-08-24T08:00:00;101681.09;;;21.03;100.00
75933;BME280;64803;52.356;5.310;2023-08-24T08:02:26;101682.47;;;21.12;100.00
75933;BME280;64803;52.356;5.310;2023-08-24T08:04:56;101685.34;;;21.17;100.00
75933;BME280;64803;52.356;5.310;2023-08-24T08:07:24;101694.97;;;21.38;100.00
75933;BME280;64803;52.356;5.310;2023-08-24T08:09:50;101687.03;;;21.55;100.00
75933;BME280;64803;52.356;5.310;2023-08-24T08:12:16;101678.50;;;21.63;100.00
75933;BME280;64803;52.356;5.310;2023-08-24T08:14:42;101687.44;;;21.70;100.00
75933;BME280;64803;52.356;5.310;2023-08-24T08:17:08;101682.72;;;21.77;100.00
75933;BME280;64803;52.356;5.310;2023-08-24T08:19:34;101687.88;;;21.85;100.00
75933;BME280;64803;52.356;5.310;2023-08-24T08:22:04;101680.13;;;22.00;100.00
75933;BME280;64803;52.356;5.310;2023-08-24T08:24:30;101678.50;;;22.22;100.00
75933;BME280;64803;52.356;5.310;2023-08-24T08:26:56;101674.84;;;22.51;100.00
75933;BME280;64803;52.356;5.310;2023-08-24T08:29:22;101679.81;;;22.61;100.00
75933;BME280;64803;52.356;5.310;2023-08-24T08:31:48;101697.31;;;22.83;100.00
75933;BME280;64803;52.356;5.310;2023-08-24T08:34:14;101705.78;;;23.04;100.00
75933;BME280;64803;52.356;5.310;2023-08-24T08:36:40;101695.50;;;23.34;100.00
75933;BME280;64803;52.356;5.310;2023-08-24T08:39:07;101691.91;;;23.46;100.00
75933;BME280;64803;52.356;5.310;2023-08-24T08:41:43;101705.81;;;23.67;100.00
75933;BME280;64803;52.356;5.310;2023-08-24T08:44:13;101708.50;;;23.79;100.00
75933;BME280;64803;52.356;5.310;2023-08-24T08:46:40;101710.19;;;23.80;100.00
75933;BME280;64803;52.356;5.310;2023-08-24T08:49:07;101713.41;;;23.77;100.00
75933;BME280;64803;52.356;5.310;2023-08-24T08:51:35;101715.25;;;23.60;100.00
75933;BME280;64803;52.356;5.310;2023-08-24T08:54:05;101727.66;;;23.51;100.00
75933;BME280;64803;52.356;5.310;2023-08-24T08:56:32;101739.50;;;23.39;100.00
75933;BME280;64803;52.356;5.310;2023-08-24T08:58:58;101742.81;;;23.41;100.00
75933;BME280;64803;52.356;5.310;2023-08-24T09:01:27;101732.44;;;23.43;100.00
75933;BME280;64803;52.356;5.310;2023-08-24T09:03:53;101727.19;;;23.42;100.00
75933;BME280;64803;52.356;5.310;2023-08-24T09:06:20;101712.19;;;23.45;100.00
75933;BME280;64803;52.356;5.310;2023-08-24T09:08:47;101689.56;;;23.37;100.00
75933;BME280;64803;52.356;5.310;2023-08-24T09:11:15;101688.91;;;23.47;100.00
75933;BME280;64803;52.356;5.310;2023-08-24T09:13:43;101680.94;;;23.46;100.00
75933;BME280;64803;52.356;5.310;2023-08-24T09:16:09;101671.16;;;23.38;100.00
75933;BME280;64803;52.356;5.310;2023-08-24T09:18:43;101662.94;;;23.38;100.00
75933;BME280;64803;52.356;5.310;2023-08-24T09:21:10;101662.59;;;23.34;100.00
75933;BME280;64803;52.356;5.310;2023-08-24T09:23:38;101652.63;;;23.28;100.00
75933;BME280;64803;52.356;5.310;2023-08-24T09:26:08;101685.22;;;23.41;100.00
75933;BME280;64803;52.356;5.310;2023-08-24T09:28:34;101681.19;;;23.44;100.00
75933;BME280;64803;52.356;5.310;2023-08-24T09:31:02;101676.53;;;23.45;100.00
75933;BME280;64803;52.356;5.310;2023-08-24T09:33:29;101673.22;;;23.42;100.00
75933;BME280;64803;52.356;5.310;2023-08-24T09:35:55;101669.75;;;23.35;100.00
75933;BME280;64803;52.356;5.310;2023-08-24T09:38:27;101681.09;;;23.39;100.00
75933;BME280;64803;52.356;5.310;2023-08-24T09:40:55;101664.53;;;23.34;100.00
75933;BME280;64803;52.356;5.310;2023-08-24T09:43:22;101634.47;;;23.27;100.00
75933;BME280;64803;52.356;5.310;2023-08-24T09:45:53;101629.84;;;23.28;100.00
75933;BME280;64803;52.356;5.310;2023-08-24T09:48:20;101620.19;;;23.25;100.00
75933;BME280;64803;52.356;5.310;2023-08-24T09:50:49;101611.97;;;23.25;100.00
75933;BME280;64803;52.356;5.310;2023-08-24T09:53:17;101609.69;;;23.22;100.00
75933;BME280;64803;52.356;5.310;2023-08-24T09:55:58;101606.25;;;23.15;100.00
75933;BME280;64803;52.356;5.310;2023-08-24T09:58:25;101619.38;;;23.13;100.00
75933;BME280;64803;52.356;5.310;2023-08-24T10:00:52;101622.22;;;23.07;100.00
75933;BME280;64803;52.356;5.310;2023-08-24T10:03:19;101617.84;;;23.06;100.00
75933;BME280;64803;52.356;5.310;2023-08-24T10:05:56;101614.84;;;23.07;100.00
75933;BME280;64803;52.356;5.310;2023-08-24T10:08:34;101617.44;;;23.14;100.00
75933;BME280;64803;52.356;5.310;2023-08-24T10:11:01;101624.38;;;23.16;100.00
75933;BME280;64803;52.356;5.310;2023-08-24T10:13:39;101622.81;;;23.20;100.00
75933;BME280;64803;52.356;5.310;2023-08-24T10:16:08;101619.72;;;23.28;100.00
75933;BME280;64803;52.356;5.310;2023-08-24T10:18:34;101607.06;;;23.27;100.00
75933;BME280;64803;52.356;5.310;2023-08-24T10:21:02;101619.56;;;23.35;100.00
75933;BME280;64803;52.356;5.310;2023-08-24T10:23:30;101622.81;;;23.32;100.00
75933;BME280;64803;52.356;5.310;2023-08-24T10:25:56;101619.94;;;23.27;100.00
75933;BME280;64803;52.356;5.310;2023-08-24T10:28:24;101631.59;;;23.22;100.00
75933;BME280;64803;52.356;5.310;2023-08-24T10:30:54;101636.38;;;23.15;100.00
75933;BME280;64803;52.356;5.310;2023-08-24T10:33:21;101631.06;;;23.09;100.00
75933;BME280;64803;52.356;5.310;2023-08-24T10:35:48;101637.38;;;23.09;100.00
75933;BME280;64803;52.356;5.310;2023-08-24T10:38:35;101629.66;;;23.06;100.00
75933;BME280;64803;52.356;5.310;2023-08-24T10:41:05;101627.38;;;23.03;100.00
75933;BME280;64803;52.356;5.310;2023-08-24T10:43:36;101632.97;;;22.97;100.00
75933;BME280;64803;52.356;5.310;2023-08-24T10:46:03;101633.81;;;22.97;100.00
75933;BME280;64803;52.356;5.310;2023-08-24T10:51:18;101631.44;;;23.01;100.00
75933;BME280;64803;52.356;5.310;2023-08-24T10:53:53;101633.78;;;23.09;100.00
75933;BME280;64803;52.356;5.310;2023-08-24T10:56:20;101631.41;;;23.24;100.00
75933;BME280;64803;52.356;5.310;2023-08-24T10:58:47;101622.81;;;23.32;100.00
75933;BME280;64803;52.356;5.310;2023-08-24T11:01:35;101618.88;;;23.39;100.00
75933;BME280;64803;52.356;5.310;2023-08-24T11:04:05;101599.13;;;23.54;100.00
75933;BME280;64803;52.356;5.310;2023-08-24T11:06:31;101606.03;;;23.57;100.00
75933;BME280;64803;52.356;5.310;2023-08-24T11:09:08;101597.59;;;23.75;100.00
75933;BME280;64803;52.356;5.310;2023-08-24T11:11:41;101611.22;;;23.70;100.00
75933;BME280;64803;52.356;5.310;2023-08-24T11:14:14;101606.31;;;23.72;100.00
75933;BME280;64803;52.356;5.310;2023-08-24T11:16:43;101590.69;;;23.72;100.00
75933;BME280;64803;52.356;5.310;2023-08-24T11:19:11;101591.72;;;23.55;100.00
75933;BME280;64803;52.356;5.310;2023-08-24T11:21:39;101591.03;;;23.48;100.00
75933;BME280;64803;52.356;5.310;2023-08-24T11:24:05;101579.38;;;23.40;100.00
75933;BME280;64803;52.356;5.310;2023-08-24T11:26:32;101577.50;;;23.41;100.00
75933;BME280;64803;52.356;5.310;2023-08-24T11:28:58;101573.66;;;23.42;100.00
75933;BME280;64803;52.356;5.310;2023-08-24T11:31:24;101570.19;;;23.47;100.00
75933;BME280;64803;52.356;5.310;2023-08-24T11:33:57;101570.28;;;23.52;100.00
75933;BME280;64803;52.356;5.310;2023-08-24T11:36:25;101570.06;;;23.41;100.00
75933;BME280;64803;52.356;5.310;2023-08-24T11:38:55;101561.16;;;23.63;100.00
75933;BME280;64803;52.356;5.310;2023-08-24T11:41:22;101568.59;;;23.79;100.00
75933;BME280;64803;52.356;5.310;2023-08-24T11:43:49;101556.44;;;23.75;100.00
75933;BME280;64803;52.356;5.310;2023-08-24T11:46:18;101556.66;;;23.57;100.00
75933;BME280;64803;52.356;5.310;2023-08-24T11:48:45;101547.34;;;23.58;100.00
75933;BME280;64803;52.356;5.310;2023-08-24T11:51:12;101551.34;;;23.50;100.00
75933;BME280;64803;52.356;5.310;2023-08-24T11:53:45;101548.34;;;23.12;100.00
75933;BME280;64803;52.356;5.310;2023-08-24T11:56:12;101533.44;;;22.80;100.00
75933;BME280;64803;52.356;5.310;2023-08-24T12:01:08;101517.50;;;22.07;100.00
75933;BME280;64803;52.356;5.310;2023-08-24T12:03:35;101508.50;;;22.07;100.00
75933;BME280;64803;52.356;5.310;2023-08-24T12:06:02;101508.00;;;22.10;100.00
75933;BME280;64803;52.356;5.310;2023-08-24T12:08:30;101506.09;;;22.10;100.00
75933;BME280;64803;52.356;5.310;2023-08-24T12:10:56;101492.44;;;22.10;100.00
75933;BME280;64803;52.356;5.310;2023-08-24T12:13:22;101496.47;;;22.08;100.00
75933;BME280;64803;52.356;5.310;2023-08-24T12:15:48;101481.94;;;21.96;100.00
75933;BME280;64803;52.356;5.310;2023-08-24T12:18:16;101466.75;;;22.00;100.00
75933;BME280;64803;52.356;5.310;2023-08-24T12:20:43;101466.59;;;22.06;100.00
75933;BME280;64803;52.356;5.310;2023-08-24T12:23:10;101468.16;;;22.14;100.00
75933;BME280;64803;52.356;5.310;2023-08-24T12:25:41;101472.91;;;21.84;100.00
75933;BME280;64803;52.356;5.310;2023-08-24T12:28:09;101461.69;;;21.74;100.00
75933;BME280;64803;52.356;5.310;2023-08-24T12:30:50;101456.22;;;21.74;100.00
75933;BME280;64803;52.356;5.310;2023-08-24T12:33:28;101450.78;;;21.85;100.00
75933;BME280;64803;52.356;5.310;2023-08-24T12:35:54;101455.41;;;21.85;100.00
75933;BME280;64803;52.356;5.310;2023-08-24T12:38:22;101456.38;;;21.90;100.00
75933;BME280;64803;52.356;5.310;2023-08-24T12:40:48;101452.94;;;21.95;100.00
75933;BME280;64803;52.356;5.310;2023-08-24T12:43:14;101445.66;;;22.00;100.00
75933;BME280;64803;52.356;5.310;2023-08-24T12:45:40;101438.16;;;22.07;100.00
75933;BME280;64803;52.356;5.310;2023-08-24T12:48:07;101441.25;;;22.11;100.00
75933;BME280;64803;52.356;5.310;2023-08-24T12:50:34;101431.72;;;22.25;100.00
75933;BME280;64803;52.356;5.310;2023-08-24T12:53:00;101420.81;;;22.13;100.00